createdAt,value
2016-05-24T00:00:01.838Z,11.82
2016-05-24T00:01:01.826Z,11.94
2016-05-24T00:02:02.593Z,11.93
2016-05-24T00:03:01.785Z,11.9
2016-05-24T00:04:01.787Z,11.8
2016-05-24T00:05:01.602Z,11.89
2016-05-24T00:06:01.745Z,11.85
2016-05-24T00:07:01.748Z,11.77
2016-05-24T00:08:01.719Z,11.78
2016-05-24T00:09:01.706Z,11.77
2016-05-24T00:10:01.694Z,11.77
2016-05-24T00:11:01.665Z,11.83
2016-05-24T00:12:01.667Z,11.77
2016-05-24T00:13:01.483Z,11.89
2016-05-24T00:14:01.626Z,11.93
2016-05-24T00:15:02.050Z,11.87
2016-05-24T00:16:01.600Z,11.89
2016-05-24T00:17:01.431Z,11.87
2016-05-24T00:18:01.575Z,11.86
2016-05-24T00:19:01.561Z,11.8
2016-05-24T00:20:01.939Z,11.86
2016-05-24T00:21:01.364Z,11.89
2016-05-24T00:22:01.352Z,11.85
2016-05-24T00:23:01.494Z,11.71
2016-05-24T00:24:01.482Z,11.82
2016-05-24T00:25:01.468Z,11.83
2016-05-24T00:26:01.440Z,11.78
2016-05-24T00:27:01.426Z,11.82
2016-05-24T00:28:01.414Z,11.74
2016-05-24T00:29:01.245Z,11.78
2016-05-24T00:30:01.904Z,11.83
2016-05-24T00:31:01.375Z,11.78
2016-05-24T00:32:01.363Z,11.8
2016-05-24T00:33:01.349Z,11.85
2016-05-24T00:34:01.180Z,11.85
2016-05-24T00:35:01.307Z,11.77
2016-05-24T00:36:01.310Z,11.78
2016-05-24T00:37:01.281Z,11.78
2016-05-24T00:38:01.269Z,11.65
2016-05-24T00:39:01.100Z,11.65
2016-05-24T00:40:01.118Z,11.77
2016-05-24T00:41:01.231Z,11.85
2016-05-24T00:42:01.233Z,11.78
2016-05-24T00:43:01.220Z,11.78
2016-05-24T00:44:01.035Z,11.78
2016-05-24T00:45:01.413Z,11.83
2016-05-24T00:46:01.166Z,11.62
2016-05-24T00:47:01.137Z,11.75
2016-05-24T00:48:01.139Z,11.83
2016-05-24T00:49:01.111Z,11.83
2016-05-24T00:50:01.098Z,11.68
2016-05-24T00:51:01.086Z,11.72
2016-05-24T00:52:01.103Z,11.67
2016-05-24T00:53:00.903Z,11.71
2016-05-24T00:54:01.046Z,11.68
2016-05-24T00:55:01.033Z,11.65
2016-05-24T00:56:01.005Z,11.62
2016-05-24T00:57:00.992Z,11.62
2016-05-24T00:58:00.979Z,11.7
2016-05-24T00:59:01.357Z,11.68
2016-05-24T01:00:00.953Z,11.68
2016-05-24T01:01:00.951Z,11.67
2016-05-24T01:02:00.951Z,11.68
2016-05-24T01:03:00.966Z,11.67
2016-05-24T01:04:00.982Z,11.65
2016-05-24T01:05:00.997Z,11.59
2016-05-24T01:06:01.005Z,11.64
2016-05-24T01:07:01.003Z,11.64
2016-05-24T01:08:01.015Z,11.61
2016-05-24T01:09:00.982Z,11.62
2016-05-24T01:10:00.838Z,11.59
2016-05-24T01:11:00.973Z,11.62
2016-05-24T01:12:00.964Z,11.64
2016-05-24T01:13:00.955Z,11.62
2016-05-24T01:14:00.946Z,11.64
2016-05-24T01:15:01.328Z,11.68
2016-05-24T01:16:00.615Z,11.68
2016-05-24T01:17:00.915Z,11.62
2016-05-24T01:18:00.747Z,11.64
2016-05-24T01:19:00.891Z,11.67
2016-05-24T01:20:00.879Z,11.71
2016-05-24T01:21:00.852Z,11.68
2016-05-24T01:22:00.840Z,11.67
2016-05-24T01:23:00.811Z,11.7
2016-05-24T01:24:00.799Z,11.71
2016-05-24T01:25:00.629Z,11.71
2016-05-24T01:26:00.618Z,11.67
2016-05-24T01:27:00.760Z,11.64
2016-05-24T01:28:00.764Z,11.67
2016-05-24T01:29:00.735Z,11.68
2016-05-24T01:30:00.739Z,11.67
2016-05-24T01:31:00.694Z,11.65
2016-05-24T01:32:00.682Z,11.65
2016-05-24T01:33:00.670Z,11.75
2016-05-24T01:34:00.656Z,11.68
2016-05-24T01:35:00.643Z,11.68
2016-05-24T01:36:00.630Z,11.7
2016-05-24T01:37:00.616Z,11.71
2016-05-24T01:38:00.589Z,11.67
2016-05-24T01:39:00.592Z,11.71
2016-05-24T01:40:00.563Z,11.67
2016-05-24T01:41:00.394Z,11.7
2016-05-24T01:42:00.537Z,11.64
2016-05-24T01:43:00.524Z,11.68
2016-05-24T01:44:00.495Z,11.67
2016-05-24T01:45:00.592Z,11.67
2016-05-24T01:46:00.469Z,11.68
2016-05-24T01:47:00.472Z,11.7
2016-05-24T01:48:00.287Z,11.71
2016-05-24T01:49:00.431Z,11.65
2016-05-24T01:50:00.418Z,11.68
2016-05-24T01:51:00.405Z,11.65
2016-05-24T01:52:00.235Z,11.65
2016-05-24T01:53:00.363Z,11.64
2016-05-24T01:54:00.350Z,11.61
2016-05-24T01:55:00.181Z,11.7
2016-05-24T01:56:00.325Z,11.56
2016-05-24T01:57:00.312Z,11.53
2016-05-24T01:58:00.298Z,11.52
2016-05-24T01:59:00.286Z,11.54
2016-05-24T02:00:00.132Z,11.56
2016-05-24T02:01:00.245Z,11.57
2016-05-24T02:02:00.247Z,11.57
2016-05-24T02:03:00.219Z,11.54
2016-05-24T02:04:00.236Z,11.59
2016-05-24T02:05:00.192Z,11.54
2016-05-24T02:06:00.179Z,11.56
2016-05-24T02:07:00.167Z,11.53
2016-05-24T02:08:00.154Z,11.53
2016-05-24T02:09:00.125Z,11.57
2016-05-24T02:09:59.955Z,11.5
2016-05-24T02:11:00.115Z,11.53
2016-05-24T02:12:00.086Z,11.49
2016-05-24T02:13:00.074Z,11.56
2016-05-24T02:14:00.045Z,11.49
2016-05-24T02:15:00.313Z,11.53
2016-05-24T02:16:00.035Z,11.5
2016-05-24T02:17:00.006Z,11.44
2016-05-24T02:17:59.993Z,11.41
2016-05-24T02:18:59.996Z,11.43
2016-05-24T02:19:59.982Z,11.36
2016-05-24T02:20:59.955Z,11.36
2016-05-24T02:21:59.941Z,11.36
2016-05-24T02:22:59.756Z,11.41
2016-05-24T02:23:59.900Z,11.36
2016-05-24T02:24:59.887Z,11.39
2016-05-24T02:25:59.874Z,11.39
2016-05-24T02:26:59.876Z,11.35
2016-05-24T02:27:59.832Z,11.36
2016-05-24T02:28:59.835Z,11.35
2016-05-24T02:29:59.667Z,11.31
2016-05-24T02:30:59.794Z,11.32
2016-05-24T02:31:59.781Z,11.41
2016-05-24T02:32:59.783Z,11.38
2016-05-24T02:33:59.755Z,11.38
2016-05-24T02:34:59.600Z,11.38
2016-05-24T02:35:59.729Z,11.41
2016-05-24T02:36:59.700Z,11.31
2016-05-24T02:37:59.688Z,11.36
2016-05-24T02:38:59.674Z,11.38
2016-05-24T02:39:59.661Z,11.38
2016-05-24T02:40:59.680Z,11.38
2016-05-24T02:41:59.636Z,11.28
2016-05-24T02:42:59.623Z,11.31
2016-05-24T02:43:59.610Z,11.29
2016-05-24T02:44:59.502Z,11.31
2016-05-24T02:45:59.568Z,11.39
2016-05-24T02:46:59.399Z,11.31
2016-05-24T02:47:59.386Z,11.34
2016-05-24T02:48:59.374Z,11.29
2016-05-24T02:49:59.563Z,11.29
2016-05-24T02:50:59.629Z,11.24
2016-05-24T02:51:59.475Z,11.31
2016-05-24T02:52:59.165Z,11.25
2016-05-24T02:53:59.356Z,11.31
2016-05-24T02:54:59.359Z,11.21
2016-05-24T02:55:59.423Z,11.25
2016-05-24T02:56:59.410Z,11.24
2016-05-24T02:57:59.242Z,11.2
2016-05-24T02:58:59.979Z,11.24
2016-05-24T02:59:59.403Z,11.21
2016-05-24T03:00:59.343Z,11.24
2016-05-24T03:01:59.330Z,11.24
2016-05-24T03:02:59.317Z,11.21
2016-05-24T03:03:59.304Z,11.2
2016-05-24T03:04:59.276Z,11.24
2016-05-24T03:05:59.263Z,11.19
2016-05-24T03:06:59.250Z,11.24
2016-05-24T03:07:59.081Z,11.21
2016-05-24T03:08:59.239Z,11.2
2016-05-24T03:09:59.211Z,11.25
2016-05-24T03:10:59.214Z,11.27
2016-05-24T03:11:59.169Z,11.2
2016-05-24T03:12:59.157Z,11.16
2016-05-24T03:13:58.987Z,11.19
2016-05-24T03:14:58.990Z,11.21
2016-05-24T03:15:58.946Z,11.19
2016-05-24T03:16:58.949Z,11.24
2016-05-24T03:17:59.092Z,11.17
2016-05-24T03:18:59.063Z,11.13
2016-05-24T03:19:59.050Z,11.16
2016-05-24T03:20:58.881Z,11.16
2016-05-24T03:21:58.868Z,11.17
2016-05-24T03:22:59.012Z,11.2
2016-05-24T03:23:58.843Z,11.2
2016-05-24T03:24:58.970Z,11.13
2016-05-24T03:25:58.957Z,11.2
2016-05-24T03:26:58.960Z,11.09
2016-05-24T03:27:58.931Z,11.17
2016-05-24T03:28:58.918Z,11.19
2016-05-24T03:29:58.921Z,11.2
2016-05-24T03:30:58.736Z,11.21
2016-05-24T03:31:58.879Z,11.2
2016-05-24T03:32:58.867Z,11.21
2016-05-24T03:33:58.838Z,11.25
2016-05-24T03:34:58.825Z,11.19
2016-05-24T03:35:58.656Z,11.19
2016-05-24T03:36:58.799Z,11.21
2016-05-24T03:37:58.771Z,11.19
2016-05-24T03:38:58.602Z,11.2
2016-05-24T03:39:58.745Z,11.17
2016-05-24T03:40:58.575Z,11.2
2016-05-24T03:41:58.719Z,11.16
2016-05-24T03:42:58.690Z,11.17
2016-05-24T03:43:58.381Z,11.19
2016-05-24T03:44:58.696Z,11.19
2016-05-24T03:45:58.496Z,11.1
2016-05-24T03:46:58.638Z,11.16
2016-05-24T03:47:58.610Z,11.09
2016-05-24T03:48:58.612Z,11.16
2016-05-24T03:49:58.428Z,11.13
2016-05-24T03:50:58.571Z,11.17
2016-05-24T03:51:58.574Z,11.1
2016-05-24T03:52:58.545Z,11.2
2016-05-24T03:53:58.533Z,11.14
2016-05-24T03:54:58.504Z,11.19
2016-05-24T03:55:58.491Z,11.17
2016-05-24T03:56:58.478Z,11.21
2016-05-24T03:57:58.465Z,11.21
2016-05-24T03:58:58.452Z,11.16
2016-05-24T03:59:58.439Z,11.14
2016-05-24T04:00:58.426Z,11.2
2016-05-24T04:01:58.398Z,11.21
2016-05-24T04:02:58.228Z,11.24
2016-05-24T04:03:58.372Z,11.24
2016-05-24T04:04:58.375Z,11.21
2016-05-24T04:05:58.346Z,11.24
2016-05-24T04:06:58.333Z,11.24
2016-05-24T04:07:58.148Z,11.19
2016-05-24T04:08:58.291Z,11.2
2016-05-24T04:09:58.278Z,11.2
2016-05-24T04:10:58.266Z,11.24
2016-05-24T04:11:58.253Z,11.21
2016-05-24T04:12:58.255Z,11.19
2016-05-24T04:13:58.227Z,11.17
2016-05-24T04:14:58.057Z,11.13
2016-05-24T04:15:58.185Z,11.13
2016-05-24T04:16:58.173Z,11.11
2016-05-24T04:17:58.003Z,11.1
2016-05-24T04:18:58.147Z,11.14
2016-05-24T04:19:58.133Z,11.11
2016-05-24T04:20:58.120Z,11.13
2016-05-24T04:21:58.093Z,11.1
2016-05-24T04:22:57.923Z,11.17
2016-05-24T04:23:58.066Z,11.14
2016-05-24T04:24:58.226Z,11.11
2016-05-24T04:25:58.056Z,11.02
2016-05-24T04:26:57.871Z,11.1
2016-05-24T04:27:57.858Z,11.06
2016-05-24T04:28:57.987Z,11.09
2016-05-24T04:29:58.895Z,11.07
2016-05-24T04:30:57.960Z,11.06
2016-05-24T04:31:57.947Z,11.09
2016-05-24T04:32:57.778Z,11.07
2016-05-24T04:33:57.921Z,10.99
2016-05-24T04:34:57.909Z,11.13
2016-05-24T04:35:57.723Z,11.1
2016-05-24T04:36:57.867Z,11.14
2016-05-24T04:37:57.697Z,11.14
2016-05-24T04:38:57.825Z,11.1
2016-05-24T04:39:57.812Z,11.13
2016-05-24T04:40:57.815Z,11.16
2016-05-24T04:41:57.786Z,11.01
2016-05-24T04:42:57.617Z,11.09
2016-05-24T04:43:57.447Z,11.1
2016-05-24T04:44:57.842Z,11.1
2016-05-24T04:45:57.735Z,11.06
2016-05-24T04:46:57.706Z,11.11
2016-05-24T04:47:57.693Z,11.14
2016-05-24T04:48:57.680Z,11.14
2016-05-24T04:49:57.667Z,11.07
2016-05-24T04:50:57.655Z,11.09
2016-05-24T04:51:57.642Z,11.1
2016-05-24T04:52:57.457Z,11.11
2016-05-24T04:53:57.443Z,11.13
2016-05-24T04:54:57.587Z,11.11
2016-05-24T04:55:57.574Z,11.13
2016-05-24T04:56:57.562Z,11.19
2016-05-24T04:57:57.565Z,11.07
2016-05-24T04:58:57.535Z,11.11
2016-05-24T04:59:57.647Z,11.19
2016-05-24T05:00:57.526Z,11.09
2016-05-24T05:01:57.481Z,11.14
2016-05-24T05:02:57.468Z,11.03
2016-05-24T05:03:57.487Z,11.03
2016-05-24T05:04:57.442Z,11.06
2016-05-24T05:05:57.414Z,11.01
2016-05-24T05:06:57.416Z,11.06
2016-05-24T05:07:57.387Z,11.1
2016-05-24T05:08:57.219Z,11.07
2016-05-24T05:09:57.362Z,11.09
2016-05-24T05:10:57.349Z,11.03
2016-05-24T05:11:57.336Z,11.09
2016-05-24T05:12:57.339Z,11.16
2016-05-24T05:13:57.295Z,11.02
2016-05-24T05:14:57.297Z,11.03
2016-05-24T05:15:57.269Z,11.06
2016-05-24T05:16:57.240Z,11.1
2016-05-24T05:17:57.243Z,11.01
2016-05-24T05:18:57.058Z,11.07
2016-05-24T05:19:57.202Z,11.09
2016-05-24T05:20:57.204Z,11.02
2016-05-24T05:21:57.175Z,11.03
2016-05-24T05:22:57.163Z,10.99
2016-05-24T05:23:57.150Z,11.09
2016-05-24T05:24:56.979Z,10.98
2016-05-24T05:25:57.108Z,10.99
2016-05-24T05:26:57.096Z,10.96
2016-05-24T05:27:57.082Z,10.98
2016-05-24T05:28:57.068Z,10.98
2016-05-24T05:29:56.759Z,10.99
2016-05-24T05:30:57.043Z,10.99
2016-05-24T05:31:57.015Z,11.02
2016-05-24T05:32:57.001Z,10.96
2016-05-24T05:33:57.005Z,10.99
2016-05-24T05:34:56.976Z,10.98
2016-05-24T05:35:56.962Z,11.02
2016-05-24T05:36:56.966Z,10.96
2016-05-24T05:37:56.937Z,11.01
2016-05-24T05:38:56.908Z,11.01
2016-05-24T05:39:56.739Z,11.02
2016-05-24T05:40:56.883Z,11.06
2016-05-24T05:41:56.870Z,11.11
2016-05-24T05:42:56.856Z,11.11
2016-05-24T05:43:56.844Z,11.11
2016-05-24T05:44:56.816Z,11.16
2016-05-24T05:45:56.833Z,11.09
2016-05-24T05:46:56.789Z,11.14
2016-05-24T05:47:56.776Z,11.09
2016-05-24T05:48:56.779Z,11.13
2016-05-24T05:49:56.751Z,11.11
2016-05-24T05:50:56.722Z,11.11
2016-05-24T05:51:56.569Z,11.16
2016-05-24T05:52:56.571Z,11.06
2016-05-24T05:53:56.715Z,11.1
2016-05-24T05:54:56.670Z,11.1
2016-05-24T05:55:56.673Z,11.06
2016-05-24T05:56:56.644Z,11.03
2016-05-24T05:57:56.476Z,11.11
2016-05-24T05:58:56.618Z,11.09
2016-05-24T05:59:57.152Z,11.11
2016-05-24T06:00:56.437Z,11.1
2016-05-24T06:01:56.564Z,11.11
2016-05-24T06:02:56.551Z,11.11
2016-05-24T06:03:56.537Z,11.14
2016-05-24T06:04:56.370Z,11.16
2016-05-24T06:05:56.356Z,11.19
2016-05-24T06:06:56.484Z,11.1
2016-05-24T06:07:56.345Z,11.1
2016-05-24T06:08:56.458Z,11.11
2016-05-24T06:09:56.288Z,11.14
2016-05-24T06:10:56.353Z,11.06
2016-05-24T06:11:56.420Z,11.11
2016-05-24T06:12:59.266Z,11.11
2016-05-24T06:14:00.518Z,11.19
2016-05-24T06:14:56.365Z,11.19
2016-05-24T06:15:57.383Z,11.2
2016-05-24T06:16:59.651Z,11.2
2016-05-24T06:17:56.513Z,11.21
2016-05-24T06:18:56.313Z,11.32
2016-05-24T06:19:56.300Z,11.27
2016-05-24T06:20:56.288Z,11.11
2016-05-24T06:21:56.274Z,11.2
2016-05-24T06:22:56.261Z,11.24
2016-05-24T06:23:56.248Z,11.2
2016-05-24T06:24:56.219Z,11.2
2016-05-24T06:25:56.207Z,11.28
2016-05-24T06:26:56.038Z,11.29
2016-05-24T06:27:56.181Z,11.31
2016-05-24T06:28:56.168Z,11.25
2016-05-24T06:29:55.999Z,11.27
2016-05-24T06:30:56.142Z,11.31
2016-05-24T06:31:56.113Z,11.27
2016-05-24T06:32:55.945Z,11.34
2016-05-24T06:33:56.088Z,11.24
2016-05-24T06:34:56.075Z,11.28
2016-05-24T06:35:55.906Z,11.29
2016-05-24T06:36:56.049Z,11.28
2016-05-24T06:37:56.020Z,11.27
2016-05-24T06:38:56.007Z,11.31
2016-05-24T06:39:55.839Z,11.35
2016-05-24T06:40:55.982Z,11.36
2016-05-24T06:41:55.812Z,11.36
2016-05-24T06:42:55.939Z,11.34
2016-05-24T06:43:55.942Z,11.32
2016-05-24T06:44:56.211Z,11.36
2016-05-24T06:45:55.917Z,11.38
2016-05-24T06:46:55.904Z,11.43
2016-05-24T06:47:55.891Z,11.44
2016-05-24T06:48:55.706Z,11.46
2016-05-24T06:49:55.850Z,11.44
2016-05-24T06:50:55.837Z,11.49
2016-05-24T06:51:55.824Z,11.46
2016-05-24T06:52:55.795Z,11.54
2016-05-24T06:53:55.797Z,11.56
2016-05-24T06:54:55.785Z,11.47
2016-05-24T06:55:55.772Z,11.53
2016-05-24T06:56:55.602Z,11.41
2016-05-24T06:57:55.996Z,11.44
2016-05-24T06:58:55.718Z,11.53
2016-05-24T06:59:56.674Z,11.56
2016-05-24T07:00:55.833Z,11.49
2016-05-24T07:01:55.726Z,11.49
2016-05-24T07:02:55.666Z,11.53
2016-05-24T07:03:55.668Z,11.47
2016-05-24T07:04:55.624Z,11.47
2016-05-24T07:05:55.627Z,11.53
2016-05-24T07:06:55.598Z,11.46
2016-05-24T07:07:55.445Z,11.52
2016-05-24T07:08:55.573Z,11.54
2016-05-24T07:09:55.560Z,11.53
2016-05-24T07:10:55.390Z,11.47
2016-05-24T07:11:55.550Z,11.52
2016-05-24T07:12:55.506Z,11.61
2016-05-24T07:13:55.493Z,11.57
2016-05-24T07:14:55.339Z,11.62
2016-05-24T07:15:55.310Z,11.68
2016-05-24T07:16:55.453Z,11.64
2016-05-24T07:17:55.503Z,11.65
2016-05-24T07:18:55.443Z,11.62
2016-05-24T07:19:55.414Z,11.67
2016-05-24T07:20:55.480Z,11.68
2016-05-24T07:21:55.389Z,11.67
2016-05-24T07:22:55.391Z,11.72
2016-05-24T07:23:55.425Z,11.78
2016-05-24T07:24:55.225Z,11.85
2016-05-24T07:25:55.322Z,11.82
2016-05-24T07:26:55.308Z,11.83
2016-05-24T07:27:55.296Z,11.67
2016-05-24T07:28:55.439Z,11.83
2016-05-24T07:29:55.129Z,11.82
2016-05-24T07:30:55.226Z,11.77
2016-05-24T07:31:55.087Z,11.78
2016-05-24T07:32:55.074Z,11.85
2016-05-24T07:33:55.202Z,11.78
2016-05-24T07:34:55.221Z,11.89
2016-05-24T07:35:55.176Z,11.94
2016-05-24T07:36:55.163Z,11.96
2016-05-24T07:37:55.229Z,11.96
2016-05-24T07:38:55.232Z,11.96
2016-05-24T07:39:55.125Z,12.01
2016-05-24T07:40:55.112Z,11.99
2016-05-24T07:41:54.926Z,11.96
2016-05-24T07:42:55.070Z,11.96
2016-05-24T07:43:55.073Z,11.96
2016-05-24T07:44:55.497Z,11.97
2016-05-24T07:45:55.392Z,11.94
2016-05-24T07:46:55.019Z,12.01
2016-05-24T07:47:55.005Z,11.99
2016-05-24T07:48:54.978Z,12.02
2016-05-24T07:49:55.011Z,11.97
2016-05-24T07:50:54.811Z,11.94
2016-05-24T07:51:55.079Z,11.87
2016-05-24T07:52:54.988Z,11.94
2016-05-24T07:53:54.928Z,11.89
2016-05-24T07:54:54.743Z,11.94
2016-05-24T07:55:54.902Z,11.94
2016-05-24T07:56:54.889Z,11.89
2016-05-24T07:57:54.705Z,11.85
2016-05-24T07:58:54.847Z,11.97
2016-05-24T07:59:55.194Z,11.93
2016-05-24T08:00:54.681Z,11.97
2016-05-24T08:01:54.887Z,12.04
2016-05-24T08:02:54.780Z,12.11
2016-05-24T08:03:54.924Z,12.12
2016-05-24T08:04:54.771Z,12.19
2016-05-24T08:05:54.757Z,12.16
2016-05-24T08:06:54.573Z,12.24
2016-05-24T08:07:54.934Z,12.15
2016-05-24T08:08:54.718Z,12.24
2016-05-24T08:09:54.706Z,12.21
2016-05-24T08:10:54.521Z,12.16
2016-05-24T08:11:54.664Z,12.2
2016-05-24T08:12:54.651Z,12.12
2016-05-24T08:13:54.654Z,12.16
2016-05-24T08:14:54.656Z,12.2
2016-05-24T08:15:54.722Z,12.2
2016-05-24T08:16:54.662Z,12.2
2016-05-24T08:17:54.587Z,12.23
2016-05-24T08:18:54.558Z,12.24
2016-05-24T08:19:54.560Z,12.24
2016-05-24T08:20:54.547Z,12.19
2016-05-24T08:21:54.520Z,12.2
2016-05-24T08:22:54.366Z,12.29
2016-05-24T08:23:54.197Z,12.31
2016-05-24T08:24:54.481Z,12.38
2016-05-24T08:25:54.467Z,12.41
2016-05-24T08:26:54.469Z,12.39
2016-05-24T08:27:54.457Z,12.38
2016-05-24T08:28:54.303Z,12.39
2016-05-24T08:29:54.431Z,12.38
2016-05-24T08:30:54.402Z,12.38
2016-05-24T08:31:54.390Z,12.41
2016-05-24T08:32:54.221Z,12.41
2016-05-24T08:33:54.379Z,12.45
2016-05-24T08:34:54.194Z,12.37
2016-05-24T08:35:54.182Z,12.33
2016-05-24T08:36:54.325Z,12.41
2016-05-24T08:37:54.312Z,12.41
2016-05-24T08:38:54.284Z,12.51
2016-05-24T08:39:54.286Z,12.51
2016-05-24T08:40:54.273Z,12.48
2016-05-24T08:41:54.245Z,12.46
2016-05-24T08:42:54.232Z,12.44
2016-05-24T08:43:54.063Z,12.49
2016-05-24T08:44:54.206Z,12.39
2016-05-24T08:45:54.849Z,12.37
2016-05-24T08:46:54.180Z,12.37
2016-05-24T08:47:54.011Z,12.27
2016-05-24T08:48:54.153Z,12.33
2016-05-24T08:49:54.141Z,12.21
2016-05-24T08:50:54.223Z,12.33
2016-05-24T08:51:54.115Z,12.37
2016-05-24T08:52:54.117Z,12.39
2016-05-24T08:53:54.089Z,12.41
2016-05-24T08:54:53.936Z,12.33
2016-05-24T08:55:54.157Z,12.38
2016-05-24T08:56:54.036Z,12.31
2016-05-24T08:57:54.038Z,12.23
2016-05-24T08:58:54.103Z,12.24
2016-05-24T08:59:54.293Z,12.29
2016-05-24T09:00:54.936Z,12.37
2016-05-24T09:01:54.049Z,12.39
2016-05-24T09:02:53.957Z,12.45
2016-05-24T09:03:53.945Z,12.42
2016-05-24T09:04:53.807Z,12.44
2016-05-24T09:05:53.918Z,12.49
2016-05-24T09:06:53.905Z,12.44
2016-05-24T09:07:53.908Z,12.44
2016-05-24T09:08:53.865Z,12.34
2016-05-24T09:09:53.945Z,12.42
2016-05-24T09:10:53.698Z,12.41
2016-05-24T09:11:53.779Z,12.29
2016-05-24T09:12:53.922Z,12.31
2016-05-24T09:13:53.799Z,12.29
2016-05-24T09:14:53.802Z,12.39
2016-05-24T09:15:53.977Z,12.37
2016-05-24T09:16:53.761Z,12.34
2016-05-24T09:17:53.748Z,12.31
2016-05-24T09:18:53.797Z,12.27
2016-05-24T09:19:53.722Z,12.31
2016-05-24T09:20:55.928Z,12.31
2016-05-24T09:21:53.696Z,12.38
2016-05-24T09:22:53.542Z,12.31
2016-05-24T09:23:53.670Z,12.39
2016-05-24T09:24:53.673Z,12.39
2016-05-24T09:25:53.504Z,12.38
2016-05-24T09:26:53.631Z,12.41
2016-05-24T09:27:53.618Z,12.51
2016-05-24T09:28:53.637Z,12.51
2016-05-24T09:29:53.592Z,12.42
2016-05-24T09:30:53.424Z,12.44
2016-05-24T09:31:53.567Z,12.41
2016-05-24T09:32:53.569Z,12.48
2016-05-24T09:33:53.666Z,12.44
2016-05-24T09:34:53.513Z,12.39
2016-05-24T09:35:53.530Z,12.41
2016-05-24T09:36:53.501Z,12.39
2016-05-24T09:37:53.474Z,12.51
2016-05-24T09:38:53.523Z,12.56
2016-05-24T09:39:53.463Z,12.49
2016-05-24T09:40:53.435Z,12.49
2016-05-24T09:41:53.437Z,12.48
2016-05-24T09:42:53.487Z,12.51
2016-05-24T09:43:53.412Z,12.39
2016-05-24T09:44:53.382Z,12.39
2016-05-24T09:45:53.073Z,12.41
2016-05-24T09:46:53.309Z,12.49
2016-05-24T09:47:53.438Z,12.49
2016-05-24T09:48:53.223Z,12.49
2016-05-24T09:49:53.317Z,12.42
2016-05-24T09:50:53.321Z,12.34
2016-05-24T09:51:53.136Z,12.39
2016-05-24T09:52:53.108Z,12.46
2016-05-24T09:53:53.251Z,12.48
2016-05-24T09:54:53.409Z,12.48
2016-05-24T09:55:53.334Z,12.48
2016-05-24T09:56:53.275Z,12.39
2016-05-24T09:57:53.199Z,12.48
2016-05-24T09:58:53.186Z,12.52
2016-05-24T09:59:53.189Z,12.44
2016-05-24T10:00:53.161Z,12.52
2016-05-24T10:01:53.147Z,12.52
2016-05-24T10:02:53.135Z,12.49
2016-05-24T10:03:53.216Z,12.51
2016-05-24T10:04:53.108Z,12.48
2016-05-24T10:05:53.017Z,12.52
2016-05-24T10:06:53.080Z,12.56
2016-05-24T10:07:53.105Z,12.45
2016-05-24T10:08:53.114Z,12.44
2016-05-24T10:09:53.123Z,12.51
2016-05-24T10:10:53.179Z,12.48
2016-05-24T10:11:53.116Z,12.42
2016-05-24T10:12:53.127Z,12.48
2016-05-24T10:13:53.107Z,12.46
2016-05-24T10:14:53.117Z,12.42
2016-05-24T10:15:52.801Z,12.49
2016-05-24T10:16:52.949Z,12.45
2016-05-24T10:17:53.095Z,12.44
2016-05-24T10:18:53.069Z,12.56
2016-05-24T10:19:53.058Z,12.49
2016-05-24T10:20:53.674Z,12.54
2016-05-24T10:21:53.037Z,12.51
2016-05-24T10:22:53.025Z,12.48
2016-05-24T10:23:53.014Z,12.52
2016-05-24T10:24:53.001Z,12.57
2016-05-24T10:25:52.990Z,12.66
2016-05-24T10:26:52.822Z,12.59
2016-05-24T10:27:52.997Z,12.67
2016-05-24T10:28:52.953Z,12.69
2016-05-24T10:29:52.956Z,12.84
2016-05-24T10:30:53.724Z,12.75
2016-05-24T10:31:53.837Z,12.7
2016-05-24T10:32:52.918Z,12.66
2016-05-24T10:33:52.873Z,12.63
2016-05-24T10:34:52.892Z,12.63
2016-05-24T10:35:52.862Z,12.63
2016-05-24T10:36:54.787Z,12.7
2016-05-24T10:37:52.837Z,12.66
2016-05-24T10:38:52.824Z,12.57
2016-05-24T10:39:52.639Z,12.6
2016-05-24T10:40:52.783Z,12.6
2016-05-24T10:41:54.754Z,12.52
2016-05-24T10:42:52.756Z,12.64
2016-05-24T10:43:52.431Z,12.71
2016-05-24T10:44:52.575Z,12.64
2016-05-24T10:45:52.874Z,12.74
2016-05-24T10:46:52.877Z,12.79
2016-05-24T10:47:52.395Z,12.92
2016-05-24T10:48:52.680Z,12.99
2016-05-24T10:49:52.666Z,13.04
2016-05-24T10:50:52.497Z,13.12
2016-05-24T10:51:54.078Z,13.07
2016-05-24T10:52:52.486Z,13.25
2016-05-24T10:53:52.599Z,13.09
2016-05-24T10:54:52.601Z,13.11
2016-05-24T10:55:52.604Z,13.15
2016-05-24T10:56:54.451Z,13.12
2016-05-24T10:57:52.563Z,13.07
2016-05-24T10:58:52.549Z,13.09
2016-05-24T10:59:52.740Z,13.11
2016-05-24T11:00:52.726Z,13.07
2016-05-24T11:01:54.215Z,13.14
2016-05-24T11:02:52.529Z,13.17
2016-05-24T11:03:52.485Z,13.22
2016-05-24T11:04:52.316Z,13.25
2016-05-24T11:05:52.506Z,13.25
2016-05-24T11:06:52.571Z,13.29
2016-05-24T11:07:52.434Z,13.22
2016-05-24T11:08:52.404Z,13.27
2016-05-24T11:09:52.407Z,13.27
2016-05-24T11:10:52.395Z,13.18
2016-05-24T11:11:53.006Z,13.33
2016-05-24T11:12:52.369Z,13.36
2016-05-24T11:13:52.042Z,13.27
2016-05-24T11:14:52.328Z,13.3
2016-05-24T11:15:52.189Z,13.29
2016-05-24T11:16:53.472Z,13.24
2016-05-24T11:17:52.304Z,13.22
2016-05-24T11:18:52.135Z,13.15
2016-05-24T11:19:52.122Z,13.21
2016-05-24T11:20:52.266Z,13.14
2016-05-24T11:21:53.002Z,13.03
2016-05-24T11:22:52.239Z,13.04
2016-05-24T11:23:52.227Z,13.07
2016-05-24T11:24:52.276Z,13.06
2016-05-24T11:25:52.232Z,13.14
2016-05-24T11:26:52.188Z,13.21
2016-05-24T11:27:52.174Z,12.97
2016-05-24T11:28:52.193Z,13
2016-05-24T11:29:52.149Z,13.07
2016-05-24T11:30:52.574Z,13.04
2016-05-24T11:31:52.123Z,13.15
2016-05-24T11:32:52.251Z,13.09
2016-05-24T11:33:52.082Z,13.07
2016-05-24T11:34:52.085Z,13.02
2016-05-24T11:35:52.071Z,12.99
2016-05-24T11:36:52.058Z,13.02
2016-05-24T11:37:52.045Z,13.07
2016-05-24T11:38:52.032Z,13.07
2016-05-24T11:39:52.098Z,13.09
2016-05-24T11:40:51.694Z,13.03
2016-05-24T11:41:52.056Z,13.17
2016-05-24T11:42:51.918Z,13.12
2016-05-24T11:43:51.811Z,13.18
2016-05-24T11:44:52.001Z,13.22
2016-05-24T11:45:51.785Z,13.27
2016-05-24T11:46:52.053Z,13.27
2016-05-24T11:47:51.931Z,13.29
2016-05-24T11:48:51.903Z,13.32
2016-05-24T11:49:51.890Z,13.4
2016-05-24T11:50:51.878Z,13.49
2016-05-24T11:51:51.738Z,13.58
2016-05-24T11:52:51.695Z,13.88
2016-05-24T11:53:51.683Z,13.98
2016-05-24T11:54:51.872Z,14.06
2016-05-24T11:55:51.813Z,14.37
2016-05-24T11:56:51.940Z,14.47
2016-05-24T11:57:51.786Z,14.42
2016-05-24T11:58:51.852Z,14.46
2016-05-24T11:59:51.604Z,14.44
2016-05-24T12:00:52.669Z,14.44
2016-05-24T12:01:51.766Z,14.5
2016-05-24T12:02:51.753Z,14.61
2016-05-24T12:03:51.568Z,14.49
2016-05-24T12:04:51.712Z,14.54
2016-05-24T12:05:51.683Z,14.65
2016-05-24T12:06:51.685Z,14.62
2016-05-24T12:07:51.532Z,14.6
2016-05-24T12:08:51.504Z,14.68
2016-05-24T12:09:51.648Z,14.67
2016-05-24T12:10:51.478Z,14.72
2016-05-24T12:11:51.621Z,14.71
2016-05-24T12:12:51.467Z,14.8
2016-05-24T12:13:51.579Z,14.75
2016-05-24T12:14:51.582Z,14.67
2016-05-24T12:15:52.006Z,14.6
2016-05-24T12:16:51.572Z,14.5
2016-05-24T12:17:51.403Z,14.56
2016-05-24T12:18:51.406Z,14.47
2016-05-24T12:19:51.549Z,14.5
2016-05-24T12:20:51.519Z,14.44
2016-05-24T12:21:51.523Z,14.46
2016-05-24T12:22:51.353Z,14.5
2016-05-24T12:23:51.341Z,14.43
2016-05-24T12:24:51.483Z,14.38
2016-05-24T12:25:51.487Z,14.42
2016-05-24T12:26:51.458Z,14.47
2016-05-24T12:27:51.445Z,14.44
2016-05-24T12:28:51.432Z,14.34
2016-05-24T12:29:51.435Z,14.29
2016-05-24T12:30:51.688Z,14.35
2016-05-24T12:31:51.394Z,14.35
2016-05-24T12:32:51.474Z,14.38
2016-05-24T12:33:51.383Z,14.35
2016-05-24T12:34:51.215Z,14.34
2016-05-24T12:35:51.202Z,14.43
2016-05-24T12:36:51.282Z,14.44
2016-05-24T12:37:51.348Z,14.49
2016-05-24T12:38:51.412Z,14.5
2016-05-24T12:39:51.306Z,14.49
2016-05-24T12:40:51.309Z,14.39
2016-05-24T12:41:51.311Z,14.49
2016-05-24T12:42:51.282Z,14.49
2016-05-24T12:43:51.284Z,14.54
2016-05-24T12:44:52.912Z,14.47
2016-05-24T12:45:51.260Z,14.5
2016-05-24T12:46:51.247Z,14.44
2016-05-24T12:47:51.311Z,14.46
2016-05-24T12:48:51.064Z,14.43
2016-05-24T12:49:51.176Z,14.35
2016-05-24T12:50:51.211Z,14.21
2016-05-24T12:51:51.386Z,14.34
2016-05-24T12:52:51.169Z,14.31
2016-05-24T12:53:51.156Z,14.37
2016-05-24T12:54:51.597Z,14.32